Time;durP1;ratioP1;P1;durP2;ratioP2;P2;SDS_P1;SDS_P2;PMS_P1;PMS_P2;Temp;Humidity;BMP_temperature;BMP_pressure;BME280_temperature;BME280_humidity;BME280_pressure;Samples;Min_cycle;Max_cycle;Signal;HPM_P1;HPM_P2
2023/06/05 00:01:27;;;;;;;7.28;2.78;;;15.70;99.90;;;;;;5051569;28;20112;-59
2023/06/05 00:03:53;;;;;;;5.55;2.53;;;15.60;99.90;;;;;;5053011;28;20087;-60
2023/06/05 00:06:19;;;;;;;6.70;2.50;;;15.50;99.90;;;;;;5051343;28;20079;-60
2023/06/05 00:08:44;;;;;;;7.90;2.78;;;15.40;99.90;;;;;;5055635;28;20033;-60
2023/06/05 00:11:10;;;;;;;6.80;2.60;;;15.40;99.90;;;;;;5051745;28;20040;-60
2023/06/05 00:13:35;;;;;;;8.95;2.50;;;15.40;99.90;;;;;;5053698;28;20047;-60
2023/06/05 00:16:03;;;;;;;6.10;2.47;;;15.40;99.90;;;;;;5050568;28;20228;-60
2023/06/05 00:18:29;;;;;;;5.20;2.35;;;15.40;99.90;;;;;;5059170;28;20041;-60
2023/06/05 00:20:55;;;;;;;5.05;2.47;;;15.40;99.90;;;;;;5053412;28;20078;-60
2023/06/05 00:23:21;;;;;;;6.65;2.50;;;15.40;99.90;;;;;;5053618;28;22222;-60
2023/06/05 00:25:46;;;;;;;5.97;2.45;;;15.30;99.90;;;;;;5048991;28;20037;-60
2023/06/05 00:28:12;;;;;;;5.93;2.40;;;15.30;99.90;;;;;;5058521;28;20642;-60
2023/06/05 00:30:38;;;;;;;6.13;2.67;;;15.20;99.90;;;;;;5049036;28;20435;-60
2023/06/05 00:33:04;;;;;;;5.57;2.70;;;15.10;99.90;;;;;;5055306;28;20041;-59
2023/06/05 00:35:30;;;;;;;7.82;2.95;;;15.10;99.90;;;;;;5058265;28;20025;-60
2023/06/05 00:37:56;;;;;;;6.07;2.50;;;15.10;99.90;;;;;;5059791;28;20449;-60
2023/06/05 00:40:21;;;;;;;6.78;3.13;;;15.00;99.90;;;;;;5050104;28;20045;-60
2023/06/05 00:42:47;;;;;;;7.40;3.10;;;15.20;99.90;;;;;;5060616;28;20385;-60
2023/06/05 00:45:14;;;;;;;8.23;3.08;;;15.10;99.90;;;;;;5051214;28;20135;-60
2023/06/05 00:47:40;;;;;;;7.65;3.20;;;15.00;99.90;;;;;;5056152;28;20384;-59
2023/06/05 00:50:07;;;;;;;7.82;2.85;;;14.90;99.90;;;;;;5050215;28;20029;-60
2023/06/05 00:52:34;;;;;;;6.13;3.15;;;14.90;99.90;;;;;;5053922;28;20830;-60
2023/06/05 00:55:01;;;;;;;5.05;2.70;;;14.90;99.90;;;;;;5060196;28;20033;-60
2023/06/05 00:57:28;;;;;;;7.43;3.10;;;14.90;99.90;;;;;;5050363;28;20040;-60
2023/06/05 00:59:54;;;;;;;6.18;2.70;;;14.80;99.90;;;;;;5056419;28;20029;-60
2023/06/05 01:02:20;;;;;;;8.63;3.10;;;14.70;99.90;;;;;;5055919;28;20441;-60
2023/06/05 01:04:46;;;;;;;6.95;2.95;;;14.70;99.90;;;;;;5058153;28;20703;-60
2023/06/05 01:07:16;;;;;;;9.68;3.13;;;14.60;99.90;;;;;;5056063;28;20043;-60
2023/06/05 01:09:42;;;;;;;6.25;2.92;;;14.60;99.90;;;;;;5061625;28;20040;-62
2023/06/05 01:12:17;;;;;;;7.80;2.53;;;14.70;99.90;;;;;;5060206;28;20499;-60
2023/06/05 01:14:45;;;;;;;4.47;2.60;;;14.60;99.90;;;;;;5053165;28;20025;-60
2023/06/05 01:17:13;;;;;;;8.95;3.53;;;14.50;99.90;;;;;;5057654;28;20127;-59
2023/06/05 01:19:39;;;;;;;7.13;2.70;;;14.40;99.90;;;;;;5062607;28;20039;-60
2023/06/05 01:22:05;;;;;;;6.32;3.03;;;14.40;99.90;;;;;;5054566;28;20036;-60
2023/06/05 01:24:32;;;;;;;5.63;2.97;;;14.40;99.90;;;;;;5059873;28;20043;-60
2023/06/05 01:27:30;;;;;;;8.88;3.30;;;14.40;99.90;;;;;;5056139;28;20025;-60
2023/06/05 01:30:04;;;;;;;7.10;2.85;;;14.40;99.90;;;;;;5057994;28;20248;-60
2023/06/05 01:32:46;;;;;;;6.72;2.88;;;14.40;99.90;;;;;;5056650;28;20389;-60
2023/06/05 01:35:16;;;;;;;7.60;3.10;;;;;;;;;;5060274;28;20024;-60
2023/06/05 01:37:48;;;;;;;6.70;2.80;;;14.30;99.90;;;;;;5060453;28;20032;-60
2023/06/05 01:40:15;;;;;;;9.02;3.10;;;14.30;99.90;;;;;;5059190;28;20035;-61
2023/06/05 01:42:42;;;;;;;5.30;3.00;;;14.20;99.90;;;;;;5058960;28;20055;-60
2023/06/05 01:45:09;;;;;;;6.22;2.92;;;14.10;99.90;;;;;;5055599;28;20040;-59
2023/06/05 01:47:39;;;;;;;6.10;2.88;;;14.10;99.90;;;;;;5058877;28;20032;-60
2023/06/05 01:50:07;;;;;;;7.35;2.78;;;14.40;99.90;;;;;;5056455;28;20035;-59
2023/06/05 01:52:34;;;;;;;8.65;3.00;;;14.10;99.90;;;;;;5063609;28;20039;-60
2023/06/05 01:55:01;;;;;;;9.02;2.80;;;14.10;99.90;;;;;;5060737;28;20128;-60
2023/06/05 01:57:33;;;;;;;6.25;2.92;;;14.20;99.90;;;;;;5059198;28;20240;-60
2023/06/05 02:00:01;;;;;;;6.90;3.05;;;14.00;99.90;;;;;;5055952;28;20060;-60
2023/06/05 02:02:28;;;;;;;8.20;2.83;;;14.10;99.90;;;;;;5057663;28;20409;-60
2023/06/05 02:04:54;;;;;;;7.18;3.00;;;14.30;99.90;;;;;;5056948;28;20071;-60
2023/06/05 02:07:21;;;;;;;10.88;3.63;;;14.00;99.90;;;;;;5061106;28;20749;-60
2023/06/05 02:09:47;;;;;;;6.90;3.13;;;14.20;99.90;;;;;;5054284;28;20037;-60
2023/06/05 02:12:15;;;;;;;8.00;3.10;;;14.00;99.90;;;;;;5058658;28;20020;-60
2023/06/05 02:14:44;;;;;;;8.52;3.42;;;13.90;99.90;;;;;;5058672;28;20516;-61
2023/06/05 02:17:13;;;;;;;8.10;3.13;;;13.90;99.90;;;;;;5051964;28;20467;-59
2023/06/05 02:19:39;;;;;;;11.35;3.85;;;13.90;99.90;;;;;;5063998;28;20476;-60
2023/06/05 02:22:05;;;;;;;6.10;3.28;;;13.90;99.90;;;;;;5053522;28;20112;-60
2023/06/05 02:24:30;;;;;;;7.10;3.40;;;13.80;99.90;;;;;;5059404;28;20119;-60
2023/06/05 02:26:56;;;;;;;7.28;3.30;;;13.60;99.90;;;;;;5059240;28;20083;-60
2023/06/05 02:29:22;;;;;;;7.70;3.70;;;13.60;99.90;;;;;;5051407;28;20041;-60
2023/06/05 02:31:48;;;;;;;8.50;3.67;;;13.50;99.90;;;;;;5057614;28;20369;-60
2023/06/05 02:34:16;;;;;;;8.90;3.60;;;13.50;99.90;;;;;;5056823;28;20029;-59
2023/06/05 02:36:45;;;;;;;9.07;4.03;;;13.50;99.90;;;;;;5058521;28;20116;-60
2023/06/05 02:39:11;;;;;;;7.72;3.85;;;13.50;99.90;;;;;;5055323;28;20032;-59
2023/06/05 02:41:37;;;;;;;8.80;3.75;;;13.40;99.90;;;;;;5058606;28;20124;-60
2023/06/05 02:44:03;;;;;;;7.00;3.88;;;13.40;99.90;;;;;;5057340;28;20121;-59
2023/06/05 02:46:28;;;;;;;7.78;3.78;;;13.40;99.90;;;;;;5055877;28;20107;-60
2023/06/05 02:48:54;;;;;;;6.38;3.92;;;13.50;99.90;;;;;;5058819;28;20041;-60
2023/06/05 02:51:20;;;;;;;10.10;3.70;;;13.50;99.90;;;;;;5057032;28;20047;-60
2023/06/05 02:53:45;;;;;;;10.35;3.83;;;13.40;99.90;;;;;;5061316;28;20037;-60
2023/06/05 02:56:13;;;;;;;8.60;3.58;;;13.30;99.90;;;;;;5052685;28;20036;-59
2023/06/05 02:58:39;;;;;;;7.70;3.80;;;13.20;99.90;;;;;;5055983;28;20037;-60
2023/06/05 03:01:08;;;;;;;11.95;4.03;;;13.30;99.90;;;;;;5054523;28;20032;-59
2023/06/05 03:03:34;;;;;;;9.90;3.80;;;13.20;99.90;;;;;;5054808;28;20029;-60
2023/06/05 03:06:06;;;;;;;8.57;4.07;;;13.30;99.90;;;;;;5052309;28;20388;-59
2023/06/05 03:08:33;;;;;;;8.32;3.60;;;13.30;99.90;;;;;;5056472;28;20119;-60
2023/06/05 03:11:03;;;;;;;9.07;4.07;;;13.30;99.90;;;;;;5056954;28;20044;-60
2023/06/05 03:13:30;;;;;;;7.60;4.10;;;13.20;99.90;;;;;;5053369;28;20094;-60
2023/06/05 03:15:57;;;;;;;8.10;3.97;;;13.20;99.90;;;;;;5049977;28;20033;-60
2023/06/05 03:18:25;;;;;;;6.30;3.95;;;13.10;99.90;;;;;;5059347;28;20064;-60
2023/06/05 03:20:55;;;;;;;6.72;3.75;;;13.10;99.90;;;;;;5057536;28;20051;-60
2023/06/05 03:23:27;;;;;;;6.28;3.53;;;13.10;99.90;;;;;;5055502;28;20156;-60
2023/06/05 03:25:54;;;;;;;8.18;3.75;;;13.10;99.90;;;;;;5057697;28;20028;-60
2023/06/05 03:28:21;;;;;;;9.50;3.75;;;13.00;99.90;;;;;;5055826;28;20107;-60
2023/06/05 03:30:47;;;;;;;7.85;4.00;;;13.00;99.90;;;;;;5050229;28;20040;-60
2023/06/05 03:33:14;;;;;;;8.93;4.40;;;13.20;99.90;;;;;;5055571;28;20035;-59
2023/06/05 03:35:42;;;;;;;9.13;4.50;;;12.90;99.90;;;;;;5046753;28;20033;-60
2023/06/05 03:38:08;;;;;;;8.65;4.82;;;12.90;99.90;;;;;;5054917;28;20055;-60
2023/06/05 03:40:34;;;;;;;8.40;4.63;;;13.00;99.90;;;;;;5046755;28;20032;-60
2023/06/05 03:43:00;;;;;;;8.68;4.20;;;13.00;99.90;;;;;;5056287;28;20037;-60
2023/06/05 03:45:27;;;;;;;12.30;3.97;;;13.20;99.90;;;;;;5053138;28;20123;-60
2023/06/05 03:47:53;;;;;;;8.52;4.53;;;13.00;99.90;;;;;;5051178;28;20515;-60
2023/06/05 03:50:20;;;;;;;6.72;4.00;;;13.10;99.90;;;;;;5049366;28;20039;-59
2023/06/05 03:52:52;;;;;;;11.40;4.30;;;13.00;99.90;;;;;;5059744;28;20488;-59
2023/06/05 03:55:20;;;;;;;8.95;4.30;;;12.90;99.90;;;;;;5051866;28;20036;-59
2023/06/05 03:57:47;;;;;;;8.25;4.28;;;12.80;99.90;;;;;;5051652;28;20044;-59
2023/06/05 04:00:14;;;;;;;8.32;4.38;;;12.80;99.90;;;;;;5052850;28;20637;-60
2023/06/05 04:02:40;;;;;;;7.90;4.70;;;12.80;99.90;;;;;;5053199;28;20472;-60
2023/06/05 04:05:06;;;;;;;8.77;4.22;;;12.80;99.90;;;;;;5052969;28;20036;-60
2023/06/05 04:07:32;;;;;;;8.93;4.38;;;13.00;99.90;;;;;;5052156;28;20033;-60
2023/06/05 04:09:57;;;;;;;6.47;4.00;;;13.00;99.90;;;;;;5052132;28;20090;-60
2023/06/05 04:12:23;;;;;;;9.02;4.30;;;12.90;99.90;;;;;;5058732;28;20032;-59
2023/06/05 04:14:48;;;;;;;9.43;4.95;;;12.80;99.90;;;;;;5053360;28;20039;-60
2023/06/05 04:17:14;;;;;;;8.40;4.43;;;12.70;99.90;;;;;;5053008;28;20125;-59
2023/06/05 04:19:40;;;;;;;9.10;4.40;;;12.80;99.90;;;;;;5056699;28;20071;-60
2023/06/05 04:22:06;;;;;;;10.90;4.45;;;12.70;99.90;;;;;;5054369;28;20150;-60
2023/06/05 04:24:32;;;;;;;10.00;4.57;;;12.90;99.90;;;;;;5055627;28;20032;-60
2023/06/05 04:27:00;;;;;;;7.75;4.30;;;13.00;99.90;;;;;;5048384;28;20037;-65
2023/06/05 04:29:26;;;;;;;6.90;4.20;;;13.10;99.90;;;;;;5049395;28;20044;-64
2023/06/05 04:31:52;;;;;;;10.70;4.47;;;13.00;99.90;;;;;;5051899;28;20527;-64
2023/06/05 04:34:18;;;;;;;6.28;4.38;;;13.10;99.90;;;;;;5061870;28;20343;-61
2023/06/05 04:36:44;;;;;;;8.80;4.57;;;12.90;99.90;;;;;;5067069;28;20036;-62
2023/06/05 04:39:16;;;;;;;8.00;4.43;;;13.00;99.90;;;;;;5061854;28;20056;-61
2023/06/05 04:41:44;;;;;;;7.63;4.63;;;13.20;99.90;;;;;;5064477;28;20568;-62
2023/06/05 04:44:16;;;;;;;7.10;4.40;;;13.30;99.90;;;;;;5059944;28;20115;-61
2023/06/05 04:46:45;;;;;;;8.73;5.35;;;13.20;99.90;;;;;;5063191;28;20039;-62
2023/06/05 04:49:12;;;;;;;7.53;4.45;;;13.10;99.90;;;;;;5056992;28;20663;-61
2023/06/05 04:51:37;;;;;;;12.95;4.75;;;13.20;99.90;;;;;;5059114;28;20032;-62
2023/06/05 04:54:03;;;;;;;8.52;5.03;;;13.20;99.90;;;;;;5056877;28;20035;-61
2023/06/05 04:56:32;;;;;;;7.55;4.82;;;13.20;99.90;;;;;;5058169;28;20044;-61
2023/06/05 04:58:59;;;;;;;13.32;5.07;;;13.20;99.90;;;;;;5051254;28;20830;-62
2023/06/05 05:01:25;;;;;;;10.23;5.10;;;13.30;99.90;;;;;;5058021;28;20049;-61
2023/06/05 05:03:51;;;;;;;9.00;5.25;;;13.20;99.90;;;;;;5055833;28;20036;-62
2023/06/05 05:06:17;;;;;;;7.65;5.28;;;13.30;99.90;;;;;;5060906;28;20474;-61
2023/06/05 05:08:48;;;;;;;8.70;4.90;;;13.20;99.90;;;;;;5063298;28;20064;-62
2023/06/05 05:11:14;;;;;;;9.25;5.15;;;13.30;99.90;;;;;;5058961;28;20045;-61
2023/06/05 05:13:40;;;;;;;9.65;5.30;;;13.50;99.90;;;;;;5058238;28;20501;-62
2023/06/05 05:16:07;;;;;;;10.57;5.60;;;13.50;99.90;;;;;;5057372;28;20064;-62
2023/06/05 05:18:34;;;;;;;12.25;5.50;;;13.50;99.90;;;;;;5055909;28;20037;-63
2023/06/05 05:21:00;;;;;;;8.65;5.28;;;13.50;99.90;;;;;;5058462;28;20041;-63
2023/06/05 05:23:25;;;;;;;9.05;5.68;;;13.50;99.90;;;;;;5056825;28;20186;-62
2023/06/05 05:25:51;;;;;;;12.13;6.20;;;13.70;99.90;;;;;;5058521;28;20032;-63
2023/06/05 05:28:16;;;;;;;12.77;5.40;;;13.80;99.90;;;;;;5056802;28;20025;-63
2023/06/05 05:30:42;;;;;;;10.95;5.88;;;14.10;99.90;;;;;;5057991;28;20036;-62
2023/06/05 05:33:07;;;;;;;11.45;5.55;;;13.90;99.90;;;;;;5055055;28;20117;-62
2023/06/05 05:35:33;;;;;;;13.25;6.05;;;13.90;99.90;;;;;;5062791;28;20036;-63
2023/06/05 05:37:59;;;;;;;8.85;5.03;;;13.90;99.90;;;;;;5054669;28;20082;-63
2023/06/05 05:40:24;;;;;;;12.27;5.30;;;14.10;99.90;;;;;;5045905;28;20029;-62
2023/06/05 05:42:50;;;;;;;9.65;5.40;;;14.20;99.90;;;;;;5054299;28;20024;-63
2023/06/05 05:45:15;;;;;;;11.18;5.75;;;14.30;99.90;;;;;;5060967;28;20097;-62
2023/06/05 05:47:41;;;;;;;12.45;5.57;;;14.20;99.90;;;;;;5053627;28;20029;-63
2023/06/05 05:50:07;;;;;;;12.65;5.97;;;14.30;99.90;;;;;;5059115;28;20692;-62
2023/06/05 05:52:33;;;;;;;13.80;5.43;;;14.30;99.90;;;;;;5051981;28;20040;-63
2023/06/05 05:54:59;;;;;;;11.63;5.72;;;14.70;99.90;;;;;;5051907;28;20040;-63
2023/06/05 05:57:25;;;;;;;9.65;5.55;;;14.70;99.90;;;;;;5067099;28;20039;-63
2023/06/05 05:59:51;;;;;;;13.57;5.47;;;14.80;99.90;;;;;;5052821;28;20409;-63
2023/06/05 06:02:17;;;;;;;13.02;5.43;;;14.80;99.90;;;;;;5055057;28;20025;-63
2023/06/05 06:04:43;;;;;;;7.97;4.93;;;15.20;99.90;;;;;;5054357;28;20028;-63
2023/06/05 06:07:09;;;;;;;9.55;5.10;;;14.90;99.90;;;;;;5065213;28;20029;-62
2023/06/05 06:09:35;;;;;;;10.77;5.32;;;15.10;99.90;;;;;;5055356;28;20025;-62
2023/06/05 06:12:05;;;;;;;10.98;5.78;;;15.20;99.90;;;;;;5058437;28;20115;-62
2023/06/05 06:14:34;;;;;;;10.15;4.85;;;15.10;99.90;;;;;;5061406;28;20029;-62
2023/06/05 06:17:01;;;;;;;10.93;5.47;;;15.10;99.90;;;;;;5052427;28;20508;-62
2023/06/05 06:19:27;;;;;;;8.80;5.80;;;15.00;99.90;;;;;;5052956;28;20025;-62
2023/06/05 06:21:54;;;;;;;10.50;5.53;;;15.20;99.90;;;;;;5056633;28;20488;-62
2023/06/05 06:24:24;;;;;;;14.35;5.82;;;15.20;99.90;;;;;;5059008;28;20056;-62
2023/06/05 06:26:52;;;;;;;12.25;6.03;;;15.20;99.90;;;;;;5053982;28;20029;-61
2023/06/05 06:29:23;;;;;;;12.52;5.65;;;15.10;99.90;;;;;;5059754;28;20039;-62
2023/06/05 06:31:49;;;;;;;13.57;6.35;;;15.40;99.90;;;;;;5054215;28;20116;-62
2023/06/05 06:34:14;;;;;;;11.25;6.25;;;15.40;99.90;;;;;;5047837;28;20055;-62
2023/06/05 06:36:40;;;;;;;13.60;6.22;;;15.60;99.90;;;;;;5057827;28;20400;-62
2023/06/05 06:39:12;;;;;;;13.25;5.63;;;15.60;99.90;;;;;;5050812;28;20170;-62
2023/06/05 06:41:38;;;;;;;14.55;5.60;;;15.80;99.90;;;;;;5052878;28;20040;-62
2023/06/05 06:44:04;;;;;;;17.20;6.13;;;15.90;99.90;;;;;;5047422;28;20405;-62
2023/06/05 06:46:31;;;;;;;13.45;5.80;;;16.10;99.90;;;;;;5052844;28;20266;-62
2023/06/05 06:48:56;;;;;;;13.02;5.97;;;15.90;99.90;;;;;;5054605;28;20033;-63
2023/06/05 06:51:22;;;;;;;12.02;5.47;;;15.90;99.90;;;;;;5057185;28;20036;-62
2023/06/05 06:53:48;;;;;;;13.15;5.55;;;15.80;99.90;;;;;;5054898;28;20039;-62
2023/06/05 06:56:15;;;;;;;9.48;5.57;;;15.70;99.90;;;;;;5051181;28;20028;-62
2023/06/05 06:58:45;;;;;;;9.68;5.13;;;15.80;99.90;;;;;;5057615;28;20040;-62
2023/06/05 07:01:11;;;;;;;8.38;5.22;;;16.10;99.90;;;;;;5054031;28;20032;-62
2023/06/05 07:03:38;;;;;;;11.48;6.20;;;16.10;99.90;;;;;;5053626;28;20043;-62
2023/06/05 07:06:03;;;;;;;11.50;6.10;;;16.30;99.90;;;;;;5058084;28;20082;-62
2023/06/05 07:08:29;;;;;;;11.13;6.13;;;16.20;99.90;;;;;;5051713;28;20044;-62
2023/06/05 07:10:55;;;;;;;8.95;6.00;;;16.40;99.90;;;;;;5055216;28;20105;-63
2023/06/05 07:13:21;;;;;;;14.88;6.78;;;16.50;99.90;;;;;;5050512;28;20037;-62
2023/06/05 07:15:47;;;;;;;10.88;6.10;;;16.70;99.90;;;;;;5045696;28;20500;-63
2023/06/05 07:18:13;;;;;;;15.93;6.75;;;16.60;99.90;;;;;;5058674;28;20041;-62
2023/06/05 07:20:38;;;;;;;13.65;6.15;;;16.60;99.90;;;;;;5053613;28;20033;-63
2023/06/05 07:23:04;;;;;;;13.05;6.45;;;16.80;99.90;;;;;;5053100;28;20048;-62
2023/06/05 07:25:29;;;;;;;15.57;6.88;;;16.70;99.90;;;;;;5055302;28;20025;-62
2023/06/05 07:27:55;;;;;;;14.35;6.85;;;16.50;99.90;;;;;;5050487;28;20041;-63
2023/06/05 07:30:21;;;;;;;12.13;6.80;;;16.80;99.90;;;;;;5049886;28;20083;-62
2023/06/05 07:32:47;;;;;;;16.58;6.53;;;16.80;99.90;;;;;;5055182;28;20036;-63
2023/06/05 07:35:14;;;;;;;15.25;6.72;;;16.80;99.90;;;;;;5050895;28;20404;-62
2023/06/05 07:37:40;;;;;;;12.95;6.95;;;16.70;99.90;;;;;;5054486;28;20041;-62
2023/06/05 07:40:06;;;;;;;13.90;6.78;;;16.80;99.90;;;;;;5056142;28;20036;-62
2023/06/05 07:42:31;;;;;;;11.82;6.65;;;17.00;99.90;;;;;;5054717;28;20393;-62
2023/06/05 07:44:57;;;;;;;13.45;6.10;;;17.30;99.90;;;;;;5047196;28;20037;-63
2023/06/05 07:47:23;;;;;;;12.02;6.28;;;17.10;99.90;;;;;;5048548;28;20037;-62
2023/06/05 07:50:06;;;;;;;14.20;6.47;;;17.20;99.90;;;;;;5058928;28;20028;-63
2023/06/05 07:52:32;;;;;;;10.85;6.15;;;17.40;99.90;;;;;;5054549;28;20484;-63
2023/06/05 07:54:58;;;;;;;13.43;6.45;;;17.40;99.90;;;;;;5049245;28;20043;-62
2023/06/05 07:57:24;;;;;;;14.70;6.25;;;17.40;99.90;;;;;;5053025;28;20644;-62
2023/06/05 07:59:54;;;;;;;12.38;6.85;;;17.40;99.90;;;;;;5061161;28;20103;-63
2023/06/05 08:02:20;;;;;;;10.68;6.80;;;17.40;99.90;;;;;;5054076;28;20032;-62
2023/06/05 08:04:46;;;;;;;14.65;7.07;;;17.30;99.90;;;;;;5055597;28;20111;-62
2023/06/05 08:07:12;;;;;;;18.17;7.20;;;17.60;99.90;;;;;;5052254;28;20558;-62
2023/06/05 08:09:39;;;;;;;16.60;7.90;;;17.50;99.90;;;;;;5048651;28;20123;-63
2023/06/05 08:12:04;;;;;;;15.80;7.25;;;17.60;99.90;;;;;;5053829;28;20050;-62
2023/06/05 08:14:30;;;;;;;12.63;5.85;;;17.80;99.90;;;;;;5059430;28;20436;-62
2023/06/05 08:16:55;;;;;;;8.98;5.72;;;18.00;99.90;;;;;;5061791;28;20701;-63
2023/06/05 08:19:22;;;;;;;15.00;6.38;;;17.70;99.90;;;;;;5055745;28;20041;-63
2023/06/05 08:21:51;;;;;;;10.60;6.53;;;17.90;99.90;;;;;;5057659;28;20112;-64
2023/06/05 08:24:17;;;;;;;15.27;6.20;;;18.10;99.90;;;;;;5049658;28;20045;-63
2023/06/05 08:26:43;;;;;;;14.95;6.13;;;18.30;99.90;;;;;;5056399;28;20404;-63
2023/06/05 08:29:08;;;;;;;15.88;6.20;;;18.20;99.90;;;;;;5055623;28;20400;-62
2023/06/05 08:31:36;;;;;;;13.85;5.90;;;18.10;99.90;;;;;;5055096;28;20100;-63
2023/06/05 08:34:02;;;;;;;13.60;6.28;;;18.30;99.90;;;;;;5055932;28;20496;-62
2023/06/05 08:36:28;;;;;;;14.13;6.57;;;18.60;99.90;;;;;;5051222;28;20067;-63
2023/06/05 08:38:53;;;;;;;9.77;6.03;;;18.30;99.90;;;;;;5044466;28;20075;-63
2023/06/05 08:41:19;;;;;;;18.42;6.43;;;18.50;99.90;;;;;;5048654;28;20052;-62
2023/06/05 08:43:45;;;;;;;13.40;6.38;;;18.80;99.90;;;;;;5044470;28;20029;-63
2023/06/05 08:46:12;;;;;;;12.77;6.45;;;18.90;99.90;;;;;;5047766;28;20041;-62
2023/06/05 08:48:44;;;;;;;14.02;6.50;;;18.80;99.90;;;;;;5045377;28;20064;-63
2023/06/05 08:51:12;;;;;;;9.97;6.23;;;19.20;99.90;;;;;;5046437;28;20511;-62
2023/06/05 08:53:40;;;;;;;12.82;5.85;;;19.00;99.90;;;;;;5044856;28;20448;-62
2023/06/05 08:56:06;;;;;;;16.08;6.07;;;19.20;99.90;;;;;;5048134;28;20076;-62
2023/06/05 08:58:32;;;;;;;10.20;5.53;;;19.20;99.90;;;;;;5051452;28;20067;-63
2023/06/05 09:00:59;;;;;;;14.23;5.63;;;19.30;99.90;;;;;;5059238;28;20384;-63
2023/06/05 09:03:25;;;;;;;9.75;5.43;;;19.10;99.90;;;;;;5044301;28;20033;-63
2023/06/05 09:05:52;;;;;;;11.82;5.00;;;19.30;99.90;;;;;;5051470;28;20078;-63
2023/06/05 09:08:27;;;;;;;13.80;5.43;;;19.40;99.90;;;;;;5055660;28;20067;-63
2023/06/05 09:10:53;;;;;;;14.43;5.55;;;19.80;99.90;;;;;;5045055;28;20098;-63
2023/06/05 09:13:19;;;;;;;12.57;5.35;;;19.30;99.90;;;;;;5050365;28;20040;-63
2023/06/05 09:15:50;;;;;;;15.25;5.57;;;19.30;99.90;;;;;;5048856;28;20033;-63
2023/06/05 09:18:16;;;;;;;11.30;5.35;;;19.30;99.90;;;;;;5049414;28;20041;-62
2023/06/05 09:20:45;;;;;;;11.15;4.70;;;20.90;99.90;;;;;;5054222;28;20616;-62
2023/06/05 09:23:29;;;;;;;11.13;5.28;;;19.40;99.90;;;;;;5057887;28;20040;-62
2023/06/05 09:25:58;;;;;;;11.80;5.03;;;19.60;99.90;;;;;;5050932;28;20048;-63
2023/06/05 09:28:24;;;;;;;8.90;4.65;;;17.50;99.90;;;;;;5053896;28;20119;-63
2023/06/05 09:30:58;;;;;;;9.15;4.50;;;19.70;99.90;;;;;;5059058;28;20135;-62
2023/06/05 09:33:26;;;;;;;10.15;4.85;;;19.90;99.90;;;;;;5058394;28;20119;-64
2023/06/05 09:36:04;;;;;;;9.68;4.72;;;19.90;99.90;;;;;;5055240;28;20029;-63
2023/06/05 09:38:30;;;;;;;9.73;4.45;;;19.80;99.90;;;;;;5042494;28;20056;-63
2023/06/05 09:41:08;;;;;;;9.60;4.28;;;20.20;99.90;;;;;;5048645;28;20037;-63
2023/06/05 09:43:34;;;;;;;9.98;4.35;;;20.30;99.90;;;;;;5049066;28;20037;-64
2023/06/05 09:46:06;;;;;;;7.70;3.72;;;20.40;99.90;;;;;;5050660;28;20037;-63
2023/06/05 09:48:32;;;;;;;9.15;4.78;;;20.40;99.90;;;;;;5054523;28;20090;-63
2023/06/05 09:51:10;;;;;;;12.93;5.00;;;20.40;99.90;;;;;;5059240;28;20473;-64
2023/06/05 09:53:45;;;;;;;8.18;3.67;;;20.60;99.90;;;;;;5054792;28;20044;-63
2023/06/05 09:56:15;;;;;;;10.98;4.35;;;20.60;99.90;;;;;;5058103;28;20544;-62
2023/06/05 09:58:52;;;;;;;16.98;4.50;;;20.60;99.90;;;;;;5057870;28;20512;-63
2023/06/05 10:01:22;;;;;;;10.50;3.75;;;20.40;99.90;;;;;;5058013;28;20059;-63
2023/06/05 10:03:56;;;;;;;10.00;4.65;;;20.60;99.90;;;;;;5057433;28;20037;-64
2023/06/05 10:06:23;;;;;;;7.50;3.45;;;20.80;99.90;;;;;;5059556;28;20086;-63
2023/06/05 10:08:52;;;;;;;9.30;3.75;;;20.90;99.90;;;;;;5058492;28;20155;-63
2023/06/05 10:11:22;;;;;;;8.15;3.55;;;21.00;99.90;;;;;;5058306;28;20040;-63
2023/06/05 10:13:51;;;;;;;7.22;4.30;;;21.10;99.90;;;;;;5050356;28;20036;-63
2023/06/05 10:16:17;;;;;;;14.88;5.05;;;21.00;99.90;;;;;;5059589;28;20072;-63
2023/06/05 10:18:49;;;;;;;7.85;3.80;;;21.10;99.90;;;;;;5050586;28;20036;-63
2023/06/05 10:21:18;;;;;;;9.32;3.90;;;21.10;99.90;;;;;;5059342;28;20506;-63
2023/06/05 10:23:48;;;;;;;7.32;3.88;;;21.10;99.90;;;;;;5055748;28;20063;-64
2023/06/05 10:26:44;;;;;;;14.75;3.90;;;21.20;99.90;;;;;;5054600;28;20489;-63
2023/06/05 10:30:03;;;;;;;10.80;3.67;;;21.40;99.90;;;;;;5057286;28;20036;-63
2023/06/05 10:32:29;;;;;;;6.85;3.60;;;21.50;99.90;;;;;;5030865;28;20111;-64
2023/06/05 10:35:20;;;;;;;8.95;4.30;;;21.50;99.90;;;;;;5027976;28;20172;-64
2023/06/05 10:38:10;;;;;;;9.15;4.15;;;21.30;99.90;;;;;;5044220;28;20036;-64
2023/06/05 10:40:36;;;;;;;7.63;3.42;;;21.30;99.90;;;;;;5053349;28;20143;-64
2023/06/05 10:43:25;;;;;;;8.55;3.90;;;21.60;99.90;;;;;;5051972;28;20167;-63
2023/06/05 10:45:51;;;;;;;8.43;3.70;;;21.70;99.90;;;;;;5059786;28;20565;-64
2023/06/05 10:48:17;;;;;;;7.32;3.55;;;21.50;99.90;;;;;;5055513;28;20073;-64
2023/06/05 10:50:43;;;;;;;11.75;3.90;;;21.60;99.90;;;;;;5054683;28;20431;-64
2023/06/05 10:53:41;;;;;;;12.48;4.28;;;21.60;99.90;;;;;;5055142;28;20033;-63
2023/06/05 10:56:07;;;;;;;11.65;3.58;;;21.90;99.90;;;;;;5053767;28;20060;-62
2023/06/05 10:58:32;;;;;;;9.65;3.97;;;22.00;99.90;;;;;;5051510;28;20113;-65
2023/06/05 11:01:18;;;;;;;12.60;3.83;;;21.90;99.90;;;;;;5047198;28;20044;-64
2023/06/05 11:04:00;;;;;;;8.05;3.78;;;22.00;99.90;;;;;;5050712;28;20468;-56
2023/06/05 11:06:27;;;;;;;8.82;4.05;;;22.30;99.90;;;;;;5056835;28;20206;-55
2023/06/05 11:09:12;;;;;;;11.95;3.67;;;22.00;99.90;;;;;;5051473;28;20064;-56
2023/06/05 11:11:59;;;;;;;7.85;3.28;;;22.10;99.90;;;;;;5060770;28;20154;-55
2023/06/05 11:14:43;;;;;;;12.48;3.72;;;22.10;99.90;;;;;;5059117;28;20059;-56
2023/06/05 11:17:34;;;;;;;6.72;3.70;;;22.20;99.90;;;;;;5057112;28;20443;-56
2023/06/05 11:20:10;;;;;;;5.20;3.28;;;22.20;99.90;;;;;;5054787;28;20381;-56
2023/06/05 11:22:59;;;;;;;7.78;3.90;;;22.10;99.90;;;;;;5058047;28;20656;-56
2023/06/05 11:25:27;;;;;;;8.65;3.10;;;21.90;99.90;;;;;;5040895;28;20044;-56
2023/06/05 11:27:56;;;;;;;7.88;3.30;;;22.10;99.90;;;;;;5055283;28;20041;-55
2023/06/05 11:30:31;;;;;;;7.32;2.78;;;22.20;99.90;;;;;;5055892;28;20187;-56
2023/06/05 11:33:05;;;;;;;10.52;2.95;;;22.40;99.90;;;;;;5060138;28;20044;-56
2023/06/05 11:35:32;;;;;;;7.45;2.85;;;22.50;99.90;;;;;;5048618;28;20048;-56
2023/06/05 11:38:11;;;;;;;9.75;2.90;;;22.40;99.90;;;;;;5053692;28;20831;-56
2023/06/05 11:40:38;;;;;;;7.28;3.15;;;22.40;99.90;;;;;;5058316;28;20090;-56
2023/06/05 11:43:06;;;;;;;6.80;3.00;;;22.60;99.90;;;;;;5052650;28;20508;-56
2023/06/05 11:45:48;;;;;;;8.40;2.97;;;22.50;99.90;;;;;;5052049;28;20029;-56
2023/06/05 11:48:14;;;;;;;7.70;3.00;;;22.60;99.90;;;;;;5056821;28;20079;-56
2023/06/05 11:50:53;;;;;;;7.57;2.95;;;22.60;99.90;;;;;;5056268;28;20055;-56
2023/06/05 11:53:20;;;;;;;7.88;2.88;;;22.60;99.90;;;;;;5054409;28;20028;-56
2023/06/05 11:58:25;;;;;;;10.52;4.15;;;22.70;99.90;;;;;;5052458;28;20156;-56
2023/06/05 12:00:52;;;;;;;25.75;14.43;;;22.90;99.90;;;;;;5046531;28;20032;-56
2023/06/05 12:03:18;;;;;;;7.40;2.88;;;23.10;99.90;;;;;;5051295;28;20500;-57
2023/06/05 12:05:45;;;;;;;9.25;2.92;;;23.10;95.20;;;;;;5057039;28;20729;-56
2023/06/05 12:08:32;;;;;;;6.35;2.75;;;23.00;99.90;;;;;;5058875;28;20097;-64
2023/06/05 12:10:57;;;;;;;8.27;2.95;;;23.00;99.90;;;;;;5053821;28;20754;-64
2023/06/05 12:13:43;;;;;;;9.25;2.95;;;23.10;99.90;;;;;;5048392;28;20037;-64
2023/06/05 12:16:09;;;;;;;4.35;3.00;;;22.80;99.90;;;;;;5050961;28;20132;-64
2023/06/05 12:18:34;;;;;;;8.40;3.03;;;23.10;98.00;;;;;;5049679;28;20156;-64
2023/06/05 12:21:01;;;;;;;6.93;2.80;;;23.10;90.40;;;;;;5045803;28;20041;-64
2023/06/05 12:23:31;;;;;;;4.43;2.88;;;23.00;91.30;;;;;;5048474;28;20562;-64
2023/06/05 12:26:04;;;;;;;8.35;3.28;;;23.20;88.80;;;;;;5048682;28;20132;-65
2023/06/05 12:28:31;;;;;;;7.22;3.00;;;23.10;89.70;;;;;;5052925;28;20051;-64
2023/06/05 12:30:57;;;;;;;10.10;3.67;;;23.20;82.60;;;;;;5050854;28;20116;-65
2023/06/05 12:33:26;;;;;;;8.30;3.33;;;22.90;82.90;;;;;;5050007;28;20534;-64
2023/06/05 12:36:07;;;;;;;6.03;3.17;;;23.20;84.40;;;;;;5053474;28;20041;-65
2023/06/05 12:38:42;;;;;;;4.32;3.03;;;23.20;81.50;;;;;;5054551;28;20105;-65
2023/06/05 12:41:08;;;;;;;7.72;3.10;;;23.30;78.20;;;;;;5050008;28;20039;-64
2023/06/05 12:43:34;;;;;;;5.05;2.65;;;23.30;80.50;;;;;;5050257;28;20040;-65
2023/06/05 12:46:00;;;;;;;8.93;3.65;;;23.20;82.70;;;;;;5052962;28;20048;-65
2023/06/05 12:48:26;;;;;;;5.90;3.00;;;23.40;81.40;;;;;;5054779;28;20044;-64
2023/06/05 12:50:53;;;;;;;6.63;3.10;;;23.40;83.70;;;;;;5045153;28;20045;-64
2023/06/05 12:53:19;;;;;;;7.47;3.40;;;23.40;74.30;;;;;;5053515;28;20037;-63